sensor_id;sensor_type;location;lat;lon;timestamp;pressure;altitude;pressure_sealevel;temperature;humidity
84890;BME280;75153;52.222;5.160;2024-03-23T00:56:06;101064.38;;;8.04;85.11
84890;BME280;75153;52.222;5.160;2024-03-23T00:58:31;101059.91;;;8.05;85.15
84890;BME280;75153;52.222;5.160;2024-03-23T01:00:56;101055.94;;;8.02;85.05
84890;BME280;75153;52.222;5.160;2024-03-23T01:03:22;101055.94;;;8.02;85.19
84890;BME280;75153;52.222;5.160;2024-03-23T01:05:47;101038.53;;;7.96;85.27
84890;BME280;75153;52.222;5.160;2024-03-23T01:08:14;101039.47;;;8.07;84.26
84890;BME280;75153;52.222;5.160;2024-03-23T01:10:39;101036.63;;;7.92;84.95
84890;BME280;75153;52.222;5.160;2024-03-23T01:13:04;101035.16;;;7.79;85.47
84890;BME280;75153;52.222;5.160;2024-03-23T01:15:30;101041.09;;;7.91;85.09
84890;BME280;75153;52.222;5.160;2024-03-23T01:17:55;101035.28;;;7.89;84.81
84890;BME280;75153;52.222;5.160;2024-03-23T01:20:20;101027.50;;;7.77;85.22
84890;BME280;75153;52.222;5.160;2024-03-23T01:22:46;101024.41;;;7.80;84.90
84890;BME280;75153;52.222;5.160;2024-03-23T01:25:11;101025.69;;;7.78;84.93
84890;BME280;75153;52.222;5.160;2024-03-23T01:27:37;101021.47;;;7.77;85.05
84890;BME280;75153;52.222;5.160;2024-03-23T01:30:02;101019.34;;;7.74;85.11
84890;BME280;75153;52.222;5.160;2024-03-23T01:32:27;101014.56;;;7.71;85.06
84890;BME280;75153;52.222;5.160;2024-03-23T01:34:53;101012.44;;;7.68;84.84
84890;BME280;75153;52.222;5.160;2024-03-23T01:37:18;101011.38;;;7.69;84.43
84890;BME280;75153;52.222;5.160;2024-03-23T01:39:44;101003.22;;;7.65;84.80
84890;BME280;75153;52.222;5.160;2024-03-23T01:42:09;101007.13;;;7.62;84.78
84890;BME280;75153;52.222;5.160;2024-03-23T01:44:35;101008.09;;;7.56;84.98
84890;BME280;75153;52.222;5.160;2024-03-23T01:47:00;101011.50;;;7.57;84.95
84890;BME280;75153;52.222;5.160;2024-03-23T01:49:26;101000.94;;;7.52;85.19
84890;BME280;75153;52.222;5.160;2024-03-23T01:51:51;101002.03;;;7.56;84.63
84890;BME280;75153;52.222;5.160;2024-03-23T01:54:16;100999.88;;;7.53;84.91
84890;BME280;75153;52.222;5.160;2024-03-23T01:56:42;101003.72;;;7.45;85.41
84890;BME280;75153;52.222;5.160;2024-03-23T01:59:07;101003.25;;;7.48;85.01
84890;BME280;75153;52.222;5.160;2024-03-23T02:01:35;101002.94;;;7.45;85.15
84890;BME280;75153;52.222;5.160;2024-03-23T02:04:03;100994.81;;;7.46;84.87
84890;BME280;75153;52.222;5.160;2024-03-23T02:06:29;100999.19;;;7.40;85.04
84890;BME280;75153;52.222;5.160;2024-03-23T02:08:55;100992.03;;;7.36;85.07
84890;BME280;75153;52.222;5.160;2024-03-23T02:11:20;100993.56;;;7.32;85.01
84890;BME280;75153;52.222;5.160;2024-03-23T02:13:46;100995.38;;;7.31;84.97
84890;BME280;75153;52.222;5.160;2024-03-23T02:16:11;100989.66;;;7.34;84.93
84890;BME280;75153;52.222;5.160;2024-03-23T02:18:37;100989.66;;;7.34;84.55
84890;BME280;75153;52.222;5.160;2024-03-23T02:21:02;100993.38;;;7.38;84.23
84890;BME280;75153;52.222;5.160;2024-03-23T02:23:28;100989.66;;;7.34;84.22
84890;BME280;75153;52.222;5.160;2024-03-23T02:25:53;100982.84;;;7.33;83.99
84890;BME280;75153;52.222;5.160;2024-03-23T02:28:19;100980.91;;;7.29;83.69
84890;BME280;75153;52.222;5.160;2024-03-23T02:30:45;100982.13;;;7.21;83.91
84890;BME280;75153;52.222;5.160;2024-03-23T02:33:11;100980.63;;;7.25;83.49
84890;BME280;75153;52.222;5.160;2024-03-23T02:35:36;100970.84;;;7.20;83.54
84890;BME280;75153;52.222;5.160;2024-03-23T02:38:01;100973.44;;;7.20;83.61
84890;BME280;75153;52.222;5.160;2024-03-23T02:40:27;100965.38;;;7.22;83.19
84890;BME280;75153;52.222;5.160;2024-03-23T02:42:53;100963.94;;;7.14;83.17
84890;BME280;75153;52.222;5.160;2024-03-23T02:45:18;100958.91;;;7.13;83.06
84890;BME280;75153;52.222;5.160;2024-03-23T02:47:44;100959.09;;;7.06;82.50
84890;BME280;75153;52.222;5.160;2024-03-23T02:50:09;100965.13;;;7.07;82.44
84890;BME280;75153;52.222;5.160;2024-03-23T02:52:35;100957.97;;;7.02;82.13
84890;BME280;75153;52.222;5.160;2024-03-23T02:55:01;100954.16;;;6.93;82.25
84890;BME280;75153;52.222;5.160;2024-03-23T02:57:30;100964.09;;;6.91;82.44
84890;BME280;75153;52.222;5.160;2024-03-23T02:59:56;100962.88;;;6.82;82.55
84890;BME280;75153;52.222;5.160;2024-03-23T03:02:21;100962.66;;;6.83;82.51
84890;BME280;75153;52.222;5.160;2024-03-23T03:04:47;100956.63;;;6.83;82.43
84890;BME280;75153;52.222;5.160;2024-03-23T03:07:13;100957.91;;;6.80;82.48
84890;BME280;75153;52.222;5.160;2024-03-23T03:09:38;100956.53;;;6.78;82.33
84890;BME280;75153;52.222;5.160;2024-03-23T03:12:07;100955.41;;;6.73;82.01
84890;BME280;75153;52.222;5.160;2024-03-23T03:14:33;100954.88;;;6.71;82.19
84890;BME280;75153;52.222;5.160;2024-03-23T03:16:58;100953.25;;;6.70;82.06
84890;BME280;75153;52.222;5.160;2024-03-23T03:19:24;100955.88;;;6.70;82.27
84890;BME280;75153;52.222;5.160;2024-03-23T03:21:49;100958.97;;;6.67;82.08
84890;BME280;75153;52.222;5.160;2024-03-23T03:24:14;100957.97;;;6.68;81.67
84890;BME280;75153;52.222;5.160;2024-03-23T03:26:40;100959.22;;;6.66;81.91
84890;BME280;75153;52.222;5.160;2024-03-23T03:29:05;100955.38;;;6.57;81.83
84890;BME280;75153;52.222;5.160;2024-03-23T03:31:31;100947.53;;;6.57;81.36
84890;BME280;75153;52.222;5.160;2024-03-23T03:33:56;100947.09;;;6.60;81.65
84890;BME280;75153;52.222;5.160;2024-03-23T03:36:22;100948.00;;;6.53;81.23
84890;BME280;75153;52.222;5.160;2024-03-23T03:38:47;100949.25;;;6.51;81.09
84890;BME280;75153;52.222;5.160;2024-03-23T03:41:12;100940.88;;;6.49;80.98
84890;BME280;75153;52.222;5.160;2024-03-23T03:43:38;100929.25;;;6.45;81.18
84890;BME280;75153;52.222;5.160;2024-03-23T03:46:03;100940.47;;;6.40;81.10
84890;BME280;75153;52.222;5.160;2024-03-23T03:48:29;100936.22;;;6.39;80.61
84890;BME280;75153;52.222;5.160;2024-03-23T03:50:54;100932.50;;;6.35;80.66
84890;BME280;75153;52.222;5.160;2024-03-23T03:53:20;100929.41;;;6.38;80.63
84890;BME280;75153;52.222;5.160;2024-03-23T03:55:46;100924.16;;;6.38;80.46
84890;BME280;75153;52.222;5.160;2024-03-23T03:58:11;100926.00;;;6.38;80.49
84890;BME280;75153;52.222;5.160;2024-03-23T04:00:37;100923.13;;;6.39;80.74
84890;BME280;75153;52.222;5.160;2024-03-23T04:03:02;100928.63;;;6.38;80.92
84890;BME280;75153;52.222;5.160;2024-03-23T04:05:28;100929.72;;;6.42;80.49
84890;BME280;75153;52.222;5.160;2024-03-23T04:07:53;100922.91;;;6.41;81.44
84890;BME280;75153;52.222;5.160;2024-03-23T04:10:19;100926.09;;;6.43;81.56
84890;BME280;75153;52.222;5.160;2024-03-23T04:12:45;100924.16;;;6.38;81.41
84890;BME280;75153;52.222;5.160;2024-03-23T04:15:11;100920.50;;;6.39;81.19
84890;BME280;75153;52.222;5.160;2024-03-23T04:17:36;100916.53;;;6.37;81.53
84890;BME280;75153;52.222;5.160;2024-03-23T04:20:03;100913.91;;;6.37;81.03
84890;BME280;75153;52.222;5.160;2024-03-23T04:22:38;100906.47;;;6.28;80.99
84890;BME280;75153;52.222;5.160;2024-03-23T04:25:04;100916.28;;;6.21;81.45
84890;BME280;75153;52.222;5.160;2024-03-23T04:27:34;100917.78;;;6.17;81.55
84890;BME280;75153;52.222;5.160;2024-03-23T04:30:00;100918.22;;;6.14;81.43
84890;BME280;75153;52.222;5.160;2024-03-23T04:32:27;100923.94;;;6.11;81.53
84890;BME280;75153;52.222;5.160;2024-03-23T04:34:54;100919.97;;;6.08;81.06
84890;BME280;75153;52.222;5.160;2024-03-23T04:37:20;100913.47;;;6.11;80.99
84890;BME280;75153;52.222;5.160;2024-03-23T04:39:46;100920.44;;;6.05;80.87
84890;BME280;75153;52.222;5.160;2024-03-23T04:42:11;100915.59;;;5.97;80.98
84890;BME280;75153;52.222;5.160;2024-03-23T04:44:37;100915.03;;;5.95;80.74
84890;BME280;75153;52.222;5.160;2024-03-23T04:47:02;100916.25;;;5.93;81.31
84890;BME280;75153;52.222;5.160;2024-03-23T04:49:28;100920.56;;;5.99;81.31
84890;BME280;75153;52.222;5.160;2024-03-23T04:51:53;100911.84;;;5.93;81.13
84890;BME280;75153;52.222;5.160;2024-03-23T04:54:18;100912.16;;;5.97;81.06
84890;BME280;75153;52.222;5.160;2024-03-23T04:56:48;100908.63;;;5.91;80.64
84890;BME280;75153;52.222;5.160;2024-03-23T04:59:13;100909.00;;;5.95;80.75
84890;BME280;75153;52.222;5.160;2024-03-23T05:01:38;100909.88;;;5.89;80.48
84890;BME280;75153;52.222;5.160;2024-03-23T05:04:08;100899.75;;;5.92;80.10
84890;BME280;75153;52.222;5.160;2024-03-23T05:06:33;100900.91;;;5.96;79.58
84890;BME280;75153;52.222;5.160;2024-03-23T05:09:00;100902.16;;;5.94;79.48
84890;BME280;75153;52.222;5.160;2024-03-23T05:11:25;100907.38;;;5.94;80.28
84890;BME280;75153;52.222;5.160;2024-03-23T05:13:50;100910.00;;;5.94;79.93
84890;BME280;75153;52.222;5.160;2024-03-23T05:16:16;100902.59;;;5.91;79.60
84890;BME280;75153;52.222;5.160;2024-03-23T05:18:41;100909.09;;;5.88;79.44
84890;BME280;75153;52.222;5.160;2024-03-23T05:21:06;100910.56;;;5.96;79.50
84890;BME280;75153;52.222;5.160;2024-03-23T05:23:32;100911.22;;;5.91;79.77
84890;BME280;75153;52.222;5.160;2024-03-23T05:25:57;100916.13;;;5.99;78.99
84890;BME280;75153;52.222;5.160;2024-03-23T05:28:22;100916.38;;;5.98;78.93
84890;BME280;75153;52.222;5.160;2024-03-23T05:30:54;100908.38;;;6.04;79.00
84890;BME280;75153;52.222;5.160;2024-03-23T05:33:20;100912.28;;;5.90;79.21
84890;BME280;75153;52.222;5.160;2024-03-23T05:35:46;100910.78;;;6.06;79.50
84890;BME280;75153;52.222;5.160;2024-03-23T05:38:11;100913.00;;;6.14;78.99
84890;BME280;75153;52.222;5.160;2024-03-23T05:40:37;100913.47;;;6.11;79.07
84890;BME280;75153;52.222;5.160;2024-03-23T05:43:06;100905.63;;;6.11;79.04
84890;BME280;75153;52.222;5.160;2024-03-23T05:45:31;100899.50;;;6.05;79.66
84890;BME280;75153;52.222;5.160;2024-03-23T05:47:56;100898.97;;;5.92;79.16
84890;BME280;75153;52.222;5.160;2024-03-23T05:50:22;100901.00;;;6.01;79.18
84890;BME280;75153;52.222;5.160;2024-03-23T05:52:49;100898.41;;;5.90;79.83
84890;BME280;75153;52.222;5.160;2024-03-23T05:55:14;100894.50;;;6.04;79.43
84890;BME280;75153;52.222;5.160;2024-03-23T05:57:40;100896.56;;;6.02;79.31
84890;BME280;75153;52.222;5.160;2024-03-23T06:00:06;100903.41;;;6.03;79.37
84890;BME280;75153;52.222;5.160;2024-03-23T06:02:37;100898.91;;;6.15;79.00
84890;BME280;75153;52.222;5.160;2024-03-23T06:05:02;100898.31;;;6.13;79.32
84890;BME280;75153;52.222;5.160;2024-03-23T06:07:28;100894.03;;;6.07;78.96
84890;BME280;75153;52.222;5.160;2024-03-23T06:09:53;100897.44;;;6.07;78.78
84890;BME280;75153;52.222;5.160;2024-03-23T06:12:18;100904.09;;;5.98;79.11
84890;BME280;75153;52.222;5.160;2024-03-23T06:14:44;100901.03;;;6.18;78.78
84890;BME280;75153;52.222;5.160;2024-03-23T06:17:09;100899.13;;;6.14;79.17
84890;BME280;75153;52.222;5.160;2024-03-23T06:19:34;100902.66;;;6.07;79.32
84890;BME280;75153;52.222;5.160;2024-03-23T06:22:00;100897.34;;;6.02;79.18
84890;BME280;75153;52.222;5.160;2024-03-23T06:24:25;100895.22;;;6.16;78.98
84890;BME280;75153;52.222;5.160;2024-03-23T06:26:51;100894.75;;;6.19;79.01
84890;BME280;75153;52.222;5.160;2024-03-23T06:29:16;100892.91;;;6.32;78.88
84890;BME280;75153;52.222;5.160;2024-03-23T06:31:41;100894.84;;;6.24;78.73
84890;BME280;75153;52.222;5.160;2024-03-23T06:34:07;100895.56;;;6.20;78.85
84890;BME280;75153;52.222;5.160;2024-03-23T06:36:32;100882.56;;;6.25;78.87
84890;BME280;75153;52.222;5.160;2024-03-23T06:38:58;100884.00;;;6.33;79.14
84890;BME280;75153;52.222;5.160;2024-03-23T06:41:24;100885.19;;;6.42;78.47
84890;BME280;75153;52.222;5.160;2024-03-23T06:43:49;100891.19;;;6.54;78.16
84890;BME280;75153;52.222;5.160;2024-03-23T06:46:14;100894.72;;;6.48;78.25
84890;BME280;75153;52.222;5.160;2024-03-23T06:48:40;100890.44;;;6.42;78.24
84890;BME280;75153;52.222;5.160;2024-03-23T06:51:05;100889.19;;;6.61;77.87
84890;BME280;75153;52.222;5.160;2024-03-23T06:53:32;100893.84;;;6.59;77.19
84890;BME280;75153;52.222;5.160;2024-03-23T06:55:57;100891.59;;;6.63;77.50
84890;BME280;75153;52.222;5.160;2024-03-23T06:58:24;100890.16;;;6.72;76.91
84890;BME280;75153;52.222;5.160;2024-03-23T07:00:50;100892.69;;;6.67;77.63
84890;BME280;75153;52.222;5.160;2024-03-23T07:03:18;100883.25;;;6.83;77.22
84890;BME280;75153;52.222;5.160;2024-03-23T07:05:44;100882.03;;;6.90;77.00
84890;BME280;75153;52.222;5.160;2024-03-23T07:08:11;100879.25;;;6.97;76.97
84890;BME280;75153;52.222;5.160;2024-03-23T07:10:39;100886.31;;;6.96;76.90
84890;BME280;75153;52.222;5.160;2024-03-23T07:13:04;100883.69;;;7.13;76.16
84890;BME280;75153;52.222;5.160;2024-03-23T07:15:30;100876.41;;;7.20;76.43
84890;BME280;75153;52.222;5.160;2024-03-23T07:17:55;100881.19;;;7.24;76.24
84890;BME280;75153;52.222;5.160;2024-03-23T07:20:21;100884.34;;;7.26;76.39
84890;BME280;75153;52.222;5.160;2024-03-23T07:22:46;100894.25;;;7.40;76.03
84890;BME280;75153;52.222;5.160;2024-03-23T07:25:13;100895.28;;;7.39;75.58
84890;BME280;75153;52.222;5.160;2024-03-23T07:27:38;100893.59;;;7.50;75.42
84890;BME280;75153;52.222;5.160;2024-03-23T07:30:04;100892.78;;;7.50;75.08
84890;BME280;75153;52.222;5.160;2024-03-23T07:32:29;100890.16;;;7.72;74.21
84890;BME280;75153;52.222;5.160;2024-03-23T07:34:55;100895.72;;;7.75;73.34
84890;BME280;75153;52.222;5.160;2024-03-23T07:37:20;100897.94;;;7.61;72.92
84890;BME280;75153;52.222;5.160;2024-03-23T07:39:45;100892.97;;;7.43;73.90
84890;BME280;75153;52.222;5.160;2024-03-23T07:42:11;100895.84;;;7.63;73.31
84890;BME280;75153;52.222;5.160;2024-03-23T07:44:36;100895.78;;;7.58;71.94
84890;BME280;75153;52.222;5.160;2024-03-23T07:47:03;100891.63;;;7.62;72.50
84890;BME280;75153;52.222;5.160;2024-03-23T07:49:28;100888.38;;;7.77;72.80
84890;BME280;75153;52.222;5.160;2024-03-23T07:51:54;100889.31;;;7.88;71.70
84890;BME280;75153;52.222;5.160;2024-03-23T07:54:19;100879.59;;;7.88;71.36
84890;BME280;75153;52.222;5.160;2024-03-23T07:56:44;100881.63;;;7.81;71.72
84890;BME280;75153;52.222;5.160;2024-03-23T07:59:10;100880.88;;;7.86;71.94
84890;BME280;75153;52.222;5.160;2024-03-23T08:01:36;100882.84;;;8.01;71.32
84890;BME280;75153;52.222;5.160;2024-03-23T08:04:02;100886.75;;;7.93;70.72
84890;BME280;75153;52.222;5.160;2024-03-23T08:06:27;100886.31;;;8.01;71.06
84890;BME280;75153;52.222;5.160;2024-03-23T08:08:55;100890.44;;;7.97;70.46
84890;BME280;75153;52.222;5.160;2024-03-23T08:11:27;100895.94;;;8.23;68.81
84890;BME280;75153;52.222;5.160;2024-03-23T08:13:54;100889.13;;;8.22;69.10
84890;BME280;75153;52.222;5.160;2024-03-23T08:16:19;100890.91;;;8.43;69.02
84890;BME280;75153;52.222;5.160;2024-03-23T08:18:45;100879.09;;;8.41;68.69
84890;BME280;75153;52.222;5.160;2024-03-23T08:21:11;100881.78;;;8.51;69.37
84890;BME280;75153;52.222;5.160;2024-03-23T08:23:36;100891.81;;;8.59;67.34
84890;BME280;75153;52.222;5.160;2024-03-23T08:26:05;100879.69;;;8.53;66.26
84890;BME280;75153;52.222;5.160;2024-03-23T08:28:31;100878.31;;;8.45;67.36
84890;BME280;75153;52.222;5.160;2024-03-23T08:30:57;100878.16;;;8.30;67.18
84890;BME280;75153;52.222;5.160;2024-03-23T08:33:25;100880.66;;;8.42;65.96
84890;BME280;75153;52.222;5.160;2024-03-23T08:35:59;100883.31;;;8.20;67.07
84890;BME280;75153;52.222;5.160;2024-03-23T08:38:25;100888.81;;;8.18;67.74
84890;BME280;75153;52.222;5.160;2024-03-23T08:41:02;100895.25;;;8.05;67.00
84890;BME280;75153;52.222;5.160;2024-03-23T08:43:29;100891.28;;;8.03;66.65
84890;BME280;75153;52.222;5.160;2024-03-23T08:46:10;100895.22;;;8.27;65.71
84890;BME280;75153;52.222;5.160;2024-03-23T08:48:41;100880.94;;;8.45;64.53
84890;BME280;75153;52.222;5.160;2024-03-23T08:51:10;100874.09;;;8.44;64.43
84890;BME280;75153;52.222;5.160;2024-03-23T08:53:36;100873.16;;;8.56;64.23
84890;BME280;75153;52.222;5.160;2024-03-23T08:56:02;100876.00;;;8.54;64.93
84890;BME280;75153;52.222;5.160;2024-03-23T08:58:29;100887.34;;;8.27;65.44
84890;BME280;75153;52.222;5.160;2024-03-23T09:00:57;100894.69;;;8.52;65.63
84890;BME280;75153;52.222;5.160;2024-03-23T09:03:23;100888.19;;;8.65;65.82
84890;BME280;75153;52.222;5.160;2024-03-23T09:05:49;100881.72;;;8.41;66.18
84890;BME280;75153;52.222;5.160;2024-03-23T09:08:14;100880.16;;;8.45;65.71
84890;BME280;75153;52.222;5.160;2024-03-23T09:10:41;100873.94;;;8.56;65.23
84890;BME280;75153;52.222;5.160;2024-03-23T09:13:07;100877.97;;;8.69;65.67
84890;BME280;75153;52.222;5.160;2024-03-23T09:15:36;100862.84;;;8.86;65.58
84890;BME280;75153;52.222;5.160;2024-03-23T09:18:02;100871.34;;;8.98;63.57
84890;BME280;75153;52.222;5.160;2024-03-23T09:20:28;100862.91;;;8.96;63.75
84890;BME280;75153;52.222;5.160;2024-03-23T09:22:54;100866.72;;;9.21;64.36
84890;BME280;75153;52.222;5.160;2024-03-23T09:25:19;100886.72;;;8.80;63.82
84890;BME280;75153;52.222;5.160;2024-03-23T09:27:48;100866.00;;;8.51;65.83
84890;BME280;75153;52.222;5.160;2024-03-23T09:30:14;100866.56;;;8.26;65.88
84890;BME280;75153;52.222;5.160;2024-03-23T09:32:43;100885.28;;;8.35;65.97
84890;BME280;75153;52.222;5.160;2024-03-23T09:35:10;100867.81;;;8.45;65.49
84890;BME280;75153;52.222;5.160;2024-03-23T09:37:36;100864.16;;;8.84;65.18
84890;BME280;75153;52.222;5.160;2024-03-23T09:40:01;100864.22;;;8.99;64.33
84890;BME280;75153;52.222;5.160;2024-03-23T09:42:27;100879.34;;;9.19;64.56
84890;BME280;75153;52.222;5.160;2024-03-23T09:44:53;100878.31;;;8.83;65.57
84890;BME280;75153;52.222;5.160;2024-03-23T09:47:19;100874.94;;;7.96;68.04
84890;BME280;75153;52.222;5.160;2024-03-23T09:49:44;100866.22;;;8.17;68.47
84890;BME280;75153;52.222;5.160;2024-03-23T09:52:10;100871.72;;;8.16;68.92
84890;BME280;75153;52.222;5.160;2024-03-23T09:54:35;100869.97;;;8.26;67.96
84890;BME280;75153;52.222;5.160;2024-03-23T09:57:01;100873.97;;;8.34;67.98
84890;BME280;75153;52.222;5.160;2024-03-23T09:59:26;100878.00;;;8.15;67.27
84890;BME280;75153;52.222;5.160;2024-03-23T10:01:53;100869.88;;;8.43;66.79
84890;BME280;75153;52.222;5.160;2024-03-23T10:04:39;100869.50;;;8.29;67.07
84890;BME280;75153;52.222;5.160;2024-03-23T10:07:31;100875.44;;;7.93;67.34
84890;BME280;75153;52.222;5.160;2024-03-23T10:09:56;100880.84;;;8.08;67.18
84890;BME280;75153;52.222;5.160;2024-03-23T10:12:23;100863.53;;;8.12;67.44
84890;BME280;75153;52.222;5.160;2024-03-23T10:14:49;100878.00;;;8.15;67.44
84890;BME280;75153;52.222;5.160;2024-03-23T10:19:47;100870.84;;;8.37;66.61
84890;BME280;75153;52.222;5.160;2024-03-23T10:22:20;100872.91;;;8.30;64.69
84890;BME280;75153;52.222;5.160;2024-03-23T10:24:46;100872.63;;;8.31;65.02
84890;BME280;75153;52.222;5.160;2024-03-23T10:27:16;100873.31;;;8.17;64.84
84890;BME280;75153;52.222;5.160;2024-03-23T10:29:48;100878.22;;;8.67;64.61
84890;BME280;75153;52.222;5.160;2024-03-23T10:32:16;100862.63;;;8.93;63.10
84890;BME280;75153;52.222;5.160;2024-03-23T10:34:42;100857.28;;;8.83;63.32
84890;BME280;75153;52.222;5.160;2024-03-23T10:37:08;100859.63;;;8.79;63.33
84890;BME280;75153;52.222;5.160;2024-03-23T10:39:38;100851.34;;;9.03;63.00
84890;BME280;75153;52.222;5.160;2024-03-23T10:42:05;100857.03;;;9.37;61.34
84890;BME280;75153;52.222;5.160;2024-03-23T10:44:32;100871.22;;;9.31;60.57
84890;BME280;75153;52.222;5.160;2024-03-23T10:47:01;100866.19;;;9.19;60.24
84890;BME280;75153;52.222;5.160;2024-03-23T10:49:34;100862.28;;;9.27;59.96
84890;BME280;75153;52.222;5.160;2024-03-23T10:52:04;100861.50;;;9.31;60.95
84890;BME280;75153;52.222;5.160;2024-03-23T10:54:31;100852.09;;;9.51;60.59
84890;BME280;75153;52.222;5.160;2024-03-23T10:57:04;100847.22;;;9.17;60.99
84890;BME280;75153;52.222;5.160;2024-03-23T10:59:31;100855.19;;;9.32;60.51
84890;BME280;75153;52.222;5.160;2024-03-23T11:01:58;100859.47;;;9.54;60.85
84890;BME280;75153;52.222;5.160;2024-03-23T11:04:34;100859.59;;;9.89;60.58
84890;BME280;75153;52.222;5.160;2024-03-23T11:07:01;100862.75;;;9.86;60.36
84890;BME280;75153;52.222;5.160;2024-03-23T11:09:42;100850.84;;;9.74;60.52
84890;BME280;75153;52.222;5.160;2024-03-23T11:15:05;100855.84;;;9.70;59.45
84890;BME280;75153;52.222;5.160;2024-03-23T11:17:32;100853.50;;;9.69;59.13
84890;BME280;75153;52.222;5.160;2024-03-23T11:20:00;100852.47;;;9.95;59.26
84890;BME280;75153;52.222;5.160;2024-03-23T11:22:46;100859.63;;;10.10;59.51
84890;BME280;75153;52.222;5.160;2024-03-23T11:27:38;100842.25;;;10.14;58.30
84890;BME280;75153;52.222;5.160;2024-03-23T11:30:31;100850.97;;;10.45;57.81
84890;BME280;75153;52.222;5.160;2024-03-23T11:32:57;100850.91;;;10.86;57.40
84890;BME280;75153;52.222;5.160;2024-03-23T11:35:33;100850.16;;;10.70;56.90
84890;BME280;75153;52.222;5.160;2024-03-23T11:38:09;100845.16;;;10.59;58.19
84890;BME280;75153;52.222;5.160;2024-03-23T11:40:39;100852.00;;;10.70;56.64
84890;BME280;75153;52.222;5.160;2024-03-23T11:43:06;100860.34;;;9.85;55.65
84890;BME280;75153;52.222;5.160;2024-03-23T11:45:36;100835.66;;;10.17;55.59
84890;BME280;75153;52.222;5.160;2024-03-23T11:50:29;100832.00;;;10.48;55.17
84890;BME280;75153;52.222;5.160;2024-03-23T11:53:22;100840.91;;;10.06;55.92
84890;BME280;75153;52.222;5.160;2024-03-23T11:55:58;100840.97;;;10.42;56.89
84890;BME280;75153;52.222;5.160;2024-03-23T11:58:25;100851.44;;;10.06;56.63
84890;BME280;75153;52.222;5.160;2024-03-23T12:00:57;100860.25;;;9.49;56.60
84890;BME280;75153;52.222;5.160;2024-03-23T12:03:23;100835.22;;;9.41;56.86
84890;BME280;75153;52.222;5.160;2024-03-23T12:05:55;100839.84;;;9.09;56.39
84890;BME280;75153;52.222;5.160;2024-03-23T12:08:25;100834.38;;;9.31;56.44
84890;BME280;75153;52.222;5.160;2024-03-23T12:11:07;100835.72;;;9.33;56.72
84890;BME280;75153;52.222;5.160;2024-03-23T12:13:34;100825.56;;;9.67;57.48
84890;BME280;75153;52.222;5.160;2024-03-23T12:16:13;100832.47;;;9.89;56.03
84890;BME280;75153;52.222;5.160;2024-03-23T12:18:41;100822.19;;;9.93;56.38
84890;BME280;75153;52.222;5.160;2024-03-23T12:21:07;100813.44;;;9.51;56.42
84890;BME280;75153;52.222;5.160;2024-03-23T12:23:34;100819.78;;;9.65;56.26
84890;BME280;75153;52.222;5.160;2024-03-23T12:26:00;100800.19;;;9.36;56.43
84890;BME280;75153;52.222;5.160;2024-03-23T12:28:25;100821.66;;;9.96;56.56
84890;BME280;75153;52.222;5.160;2024-03-23T12:30:51;100815.09;;;10.19;55.60
84890;BME280;75153;52.222;5.160;2024-03-23T12:33:18;100816.41;;;10.26;56.16
84890;BME280;75153;52.222;5.160;2024-03-23T12:35:43;100795.56;;;10.71;55.11
84890;BME280;75153;52.222;5.160;2024-03-23T12:38:08;100787.88;;;10.85;55.22
84890;BME280;75153;52.222;5.160;2024-03-23T12:40:34;100805.81;;;10.83;53.98
84890;BME280;75153;52.222;5.160;2024-03-23T12:42:59;100807.59;;;11.02;52.63
84890;BME280;75153;52.222;5.160;2024-03-23T12:45:25;100787.88;;;10.85;50.89
84890;BME280;75153;52.222;5.160;2024-03-23T12:47:50;100788.84;;;11.09;51.29
84890;BME280;75153;52.222;5.160;2024-03-23T12:50:19;100803.16;;;10.93;51.64
84890;BME280;75153;52.222;5.160;2024-03-23T12:52:44;100814.81;;;10.82;50.50
84890;BME280;75153;52.222;5.160;2024-03-23T12:55:10;100815.63;;;10.21;51.75
84890;BME280;75153;52.222;5.160;2024-03-23T12:57:36;100805.06;;;10.16;52.54
84890;BME280;75153;52.222;5.160;2024-03-23T13:00:01;100794.56;;;10.31;51.81
84890;BME280;75153;52.222;5.160;2024-03-23T13:02:28;100794.03;;;10.08;52.11
84890;BME280;75153;52.222;5.160;2024-03-23T13:04:54;100808.50;;;10.11;53.10
84890;BME280;75153;52.222;5.160;2024-03-23T13:07:20;100799.56;;;10.38;52.17
84890;BME280;75153;52.222;5.160;2024-03-23T13:09:46;100791.31;;;10.80;52.40
84890;BME280;75153;52.222;5.160;2024-03-23T13:12:12;100791.63;;;10.68;51.00
84890;BME280;75153;52.222;5.160;2024-03-23T13:14:38;100806.69;;;10.32;51.62
84890;BME280;75153;52.222;5.160;2024-03-23T13:17:04;100803.22;;;10.21;52.37
84890;BME280;75153;52.222;5.160;2024-03-23T13:19:29;100792.44;;;10.12;53.95
84890;BME280;75153;52.222;5.160;2024-03-23T13:22:00;100800.38;;;10.28;54.04
84890;BME280;75153;52.222;5.160;2024-03-23T13:24:26;100793.75;;;10.51;54.51
84890;BME280;75153;52.222;5.160;2024-03-23T13:26:52;100787.97;;;10.39;55.31
84890;BME280;75153;52.222;5.160;2024-03-23T13:29:19;100795.81;;;9.72;57.04
84890;BME280;75153;52.222;5.160;2024-03-23T13:31:45;100808.44;;;9.65;58.23
84890;BME280;75153;52.222;5.160;2024-03-23T13:34:11;100795.53;;;9.63;57.89
84890;BME280;75153;52.222;5.160;2024-03-23T13:36:36;100783.34;;;9.27;54.34
84890;BME280;75153;52.222;5.160;2024-03-23T13:39:03;100789.56;;;8.58;54.26
84890;BME280;75153;52.222;5.160;2024-03-23T13:41:34;100785.63;;;8.60;55.04
84890;BME280;75153;52.222;5.160;2024-03-23T13:43:59;100785.50;;;8.82;56.05
84890;BME280;75153;52.222;5.160;2024-03-23T13:46:24;100770.13;;;9.11;55.76
84890;BME280;75153;52.222;5.160;2024-03-23T13:48:50;100768.44;;;9.63;54.89
84890;BME280;75153;52.222;5.160;2024-03-23T13:51:23;100761.88;;;10.11;55.04
84890;BME280;75153;52.222;5.160;2024-03-23T13:53:49;100765.84;;;10.29;53.90
84890;BME280;75153;52.222;5.160;2024-03-23T13:56:14;100773.16;;;10.53;53.54
84890;BME280;75153;52.222;5.160;2024-03-23T13:58:39;100768.97;;;10.21;53.55
84890;BME280;75153;52.222;5.160;2024-03-23T14:01:05;100775.84;;;9.97;53.33
84890;BME280;75153;52.222;5.160;2024-03-23T14:03:30;100766.09;;;9.77;53.94